createdAt,value
2023-05-01T00:01:47.663Z,8.85
2023-05-01T00:12:51.346Z,8.73
2023-05-01T00:19:12.773Z,8.64
2023-05-01T00:21:39.237Z,8.61
2023-05-01T00:24:06.035Z,8.62
2023-05-01T00:30:19.655Z,8.53
2023-05-01T00:32:46.232Z,8.58
2023-05-01T00:35:13.311Z,8.55
2023-05-01T00:37:39.891Z,8.53
2023-05-01T00:40:07.235Z,8.53
2023-05-01T00:46:21.785Z,8.50
2023-05-01T00:48:48.568Z,8.51
2023-05-01T00:51:15.665Z,8.49
2023-05-01T00:57:59.325Z,8.44
2023-05-01T01:00:25.892Z,8.46
2023-05-01T01:02:52.576Z,8.45
2023-05-01T01:05:24.409Z,8.41
2023-05-01T01:08:05.602Z,8.43
2023-05-01T01:11:08.372Z,8.40
2023-05-01T01:13:47.030Z,8.36
2023-05-01T01:20:27.072Z,8.30
2023-05-01T01:31:50.013Z,8.25
2023-05-01T01:34:33.434Z,8.20
2023-05-01T01:37:55.549Z,8.16
2023-05-01T01:40:31.926Z,8.12
2023-05-01T01:54:48.736Z,8.05
2023-05-01T01:57:18.635Z,8.06
2023-05-01T02:04:20.481Z,8.06
2023-05-01T02:22:09.273Z,8.04
2023-05-01T02:24:38.278Z,8.05
2023-05-01T02:28:03.722Z,8.07
2023-05-01T02:34:42.122Z,8.03
2023-05-01T02:37:36.453Z,8.08
2023-05-01T02:40:04.056Z,8.03
2023-05-01T02:50:05.711Z,8.02
2023-05-01T02:52:32.606Z,8.02
2023-05-01T02:58:48.501Z,8.03
2023-05-01T03:01:15.150Z,7.98
2023-05-01T03:08:07.238Z,7.96
2023-05-01T03:14:29.659Z,7.95
2023-05-01T03:16:56.669Z,7.92
2023-05-01T03:19:23.221Z,7.90
2023-05-01T03:21:49.739Z,7.87
2023-05-01T03:28:02.178Z,7.86
2023-05-01T03:30:28.784Z,7.86
2023-05-01T03:36:36.356Z,7.79
2023-05-01T03:39:02.850Z,7.77
2023-05-01T03:45:46.089Z,7.68
2023-05-01T03:56:16.833Z,7.64
2023-05-01T03:58:43.685Z,7.63
2023-05-01T04:04:57.662Z,7.59
2023-05-01T04:07:24.517Z,7.61
2023-05-01T04:14:25.380Z,7.62
2023-05-01T04:16:52.105Z,7.64
2023-05-01T04:19:18.585Z,7.68
2023-05-01T04:22:05.751Z,7.70
2023-05-01T04:24:32.579Z,7.70
2023-05-01T04:26:59.307Z,7.74
2023-05-01T04:29:25.929Z,7.79
2023-05-01T04:31:52.569Z,7.81
2023-05-01T04:34:19.718Z,7.84
2023-05-01T04:36:46.286Z,7.88
2023-05-01T04:39:13.009Z,7.93
2023-05-01T04:41:39.568Z,7.99
2023-05-01T04:44:06.041Z,8.05
2023-05-01T04:46:33.492Z,8.14
2023-05-01T04:48:59.980Z,8.27
2023-05-01T04:55:54.643Z,8.66
2023-05-01T05:01:58.471Z,8.93
2023-05-01T05:24:30.840Z,9.74
2023-05-01T05:39:47.954Z,10.08
2023-05-01T05:46:45.865Z,10.04
2023-05-01T05:49:12.491Z,10.11
2023-05-01T05:51:39.062Z,10.20
2023-05-01T05:54:05.666Z,10.42
2023-05-01T05:56:32.429Z,10.54
2023-05-01T05:59:02.958Z,10.64
2023-05-01T06:01:31.636Z,10.72
2023-05-01T06:04:58.961Z,10.93
2023-05-01T06:11:12.838Z,11.25
2023-05-01T06:13:39.691Z,11.47
2023-05-01T06:19:48.270Z,11.64
2023-05-01T06:22:26.340Z,11.95
2023-05-01T06:29:20.826Z,12.12
2023-05-01T06:32:00.930Z,12.22
2023-05-01T06:37:56.135Z,12.69
2023-05-01T06:55:39.328Z,14.71
2023-05-01T07:02:26.666Z,15.98
2023-05-01T07:04:56.790Z,15.66
2023-05-01T07:11:35.346Z,16.53
2023-05-01T07:14:01.969Z,17.09
2023-05-01T07:20:13.508Z,17.64
2023-05-01T07:32:16.322Z,17.91
2023-05-01T07:38:50.593Z,18.65
2023-05-01T07:41:17.162Z,18.77
2023-05-01T07:43:43.696Z,19.00
2023-05-01T07:46:10.511Z,19.62
2023-05-01T07:48:39.023Z,19.72
2023-05-01T07:51:08.900Z,19.86
2023-05-01T07:53:35.437Z,20.01
2023-05-01T07:56:09.764Z,19.83
2023-05-01T07:58:37.767Z,19.92
2023-05-01T08:01:11.889Z,20.34
2023-05-01T08:08:34.463Z,21.66
2023-05-01T08:11:01.068Z,22.50
2023-05-01T08:13:27.605Z,22.86
2023-05-01T08:15:54.288Z,23.40
2023-05-01T08:18:21.365Z,24.12
2023-05-01T08:20:48.606Z,24.76
2023-05-01T08:23:16.580Z,25.39
2023-05-01T08:25:43.469Z,26.64
2023-05-01T08:28:10.309Z,27.09
2023-05-01T08:30:36.930Z,27.42
2023-05-01T08:33:03.717Z,26.84
2023-05-01T08:35:30.348Z,27.02
2023-05-01T08:37:58.065Z,27.49
2023-05-01T08:40:26.392Z,27.92
2023-05-01T08:42:54.832Z,27.14
2023-05-01T08:45:24.700Z,26.31
2023-05-01T08:47:53.935Z,26.47
2023-05-01T08:52:53.074Z,25.22
2023-05-01T08:55:20.833Z,25.21
2023-05-01T08:57:48.610Z,25.54
2023-05-01T09:00:19.453Z,25.50
2023-05-01T09:02:48.499Z,24.46
2023-05-01T09:05:19.490Z,24.46
2023-05-01T09:07:46.654Z,25.12
2023-05-01T09:10:15.428Z,25.69
2023-05-01T09:12:44.919Z,25.94
2023-05-01T09:15:11.561Z,25.90
2023-05-01T09:17:38.584Z,27.76
2023-05-01T09:20:06.339Z,28.36
2023-05-01T09:22:33.896Z,29.80
2023-05-01T09:25:00.929Z,30.59
2023-05-01T09:27:27.826Z,30.67
2023-05-01T09:29:54.469Z,29.87
2023-05-01T09:32:23.527Z,29.31
2023-05-01T09:34:51.708Z,28.66
2023-05-01T09:37:32.502Z,27.70
2023-05-01T09:40:09.477Z,27.52
2023-05-01T09:42:39.539Z,27.01
2023-05-01T09:45:17.401Z,26.69
2023-05-01T09:47:45.302Z,28.16
2023-05-01T09:50:29.613Z,27.09
2023-05-01T09:52:56.248Z,26.86
2023-05-01T09:55:25.393Z,26.54
2023-05-01T09:57:52.994Z,26.94
2023-05-01T10:00:22.133Z,27.37
2023-05-01T10:02:49.518Z,26.25
2023-05-01T10:05:16.257Z,26.69
2023-05-01T10:07:59.673Z,27.09
2023-05-01T10:10:26.559Z,26.01
2023-05-01T10:12:53.498Z,25.13
2023-05-01T10:15:26.513Z,24.93
2023-05-01T10:17:54.736Z,25.74
2023-05-01T10:20:21.649Z,24.63
2023-05-01T10:22:48.896Z,25.79
2023-05-01T10:25:17.631Z,27.12
2023-05-01T10:27:44.312Z,27.38
2023-05-01T10:30:11.427Z,26.40
2023-05-01T10:32:41.783Z,27.85
2023-05-01T10:35:19.798Z,29.18
2023-05-01T10:37:59.805Z,29.14
2023-05-01T10:40:41.320Z,30.43
2023-05-01T10:43:28.674Z,29.97
2023-05-01T10:46:20.992Z,29.06
2023-05-01T10:48:47.538Z,29.80
2023-05-01T10:51:17.152Z,29.16
2023-05-01T10:53:45.550Z,28.86
2023-05-01T10:56:25.314Z,29.41
2023-05-01T10:58:59.523Z,29.46
2023-05-01T11:01:31.526Z,29.71
2023-05-01T11:04:04.293Z,30.68
2023-05-01T11:06:31.703Z,30.78
2023-05-01T11:08:58.430Z,30.95
2023-05-01T11:11:25.104Z,31.52
2023-05-01T11:14:08.656Z,30.34
2023-05-01T11:16:38.957Z,30.23
2023-05-01T11:19:07.649Z,30.17
2023-05-01T11:21:36.639Z,29.69
2023-05-01T11:24:04.621Z,28.23
2023-05-01T11:26:32.654Z,28.24
2023-05-01T11:29:01.260Z,28.45
2023-05-01T11:31:29.091Z,28.65
2023-05-01T11:34:00.334Z,29.26
2023-05-01T11:36:28.296Z,29.34
2023-05-01T11:38:56.877Z,29.53
2023-05-01T11:41:24.799Z,29.32
2023-05-01T11:43:56.572Z,28.90
2023-05-01T11:46:31.980Z,28.83
2023-05-01T11:49:01.230Z,27.23
2023-05-01T11:51:29.062Z,26.72
2023-05-01T11:54:07.372Z,26.87
2023-05-01T11:56:35.065Z,26.82
2023-05-01T11:59:16.502Z,26.60
2023-05-01T12:01:45.499Z,26.70
2023-05-01T12:04:13.306Z,26.99
2023-05-01T12:06:45.717Z,27.26
2023-05-01T12:09:20.324Z,27.42
2023-05-01T12:11:50.533Z,27.55
2023-05-01T12:14:19.466Z,25.92
2023-05-01T12:16:46.963Z,26.43
2023-05-01T12:19:15.166Z,26.44
2023-05-01T12:21:42.036Z,26.48
2023-05-01T12:24:17.924Z,26.82
2023-05-01T12:26:45.484Z,27.41
2023-05-01T12:29:12.496Z,27.18
2023-05-01T12:31:49.873Z,27.55
2023-05-01T12:34:16.743Z,26.95
2023-05-01T12:36:53.351Z,25.82
2023-05-01T12:39:20.502Z,25.17
2023-05-01T12:41:49.595Z,24.85
2023-05-01T12:44:19.242Z,24.51
2023-05-01T12:46:53.154Z,23.72
2023-05-01T12:49:21.171Z,23.67
2023-05-01T12:51:52.570Z,23.68
2023-05-01T12:54:34.085Z,23.57
2023-05-01T12:57:11.049Z,23.85
2023-05-01T12:59:39.740Z,24.18
2023-05-01T13:02:07.685Z,24.28
2023-05-01T13:04:35.199Z,24.37
2023-05-01T13:07:02.656Z,24.07
2023-05-01T13:09:32.581Z,23.96
2023-05-01T13:12:05.911Z,23.90
2023-05-01T13:14:43.385Z,23.85
2023-05-01T13:17:11.710Z,23.47
2023-05-01T13:19:39.382Z,23.43
2023-05-01T13:22:06.180Z,23.41
2023-05-01T13:24:44.681Z,23.04
2023-05-01T13:27:12.460Z,23.04
2023-05-01T13:29:39.892Z,23.05
2023-05-01T13:32:10.273Z,22.74
2023-05-01T13:34:37.691Z,22.73
2023-05-01T13:37:04.217Z,22.53
2023-05-01T13:39:30.786Z,21.93
2023-05-01T13:41:57.633Z,21.86
2023-05-01T13:44:24.155Z,21.92
2023-05-01T13:46:50.677Z,21.75
2023-05-01T13:49:21.792Z,21.85
2023-05-01T13:51:48.824Z,21.96
2023-05-01T13:54:16.798Z,21.81
2023-05-01T13:56:43.313Z,21.73
2023-05-01T14:07:08.618Z,21.79
2023-05-01T14:09:36.507Z,21.90
2023-05-01T14:15:50.416Z,21.89
2023-05-01T14:18:20.780Z,21.91
2023-05-01T14:20:54.062Z,21.80
2023-05-01T14:23:26.232Z,21.87
2023-05-01T14:25:52.723Z,21.85
2023-05-01T14:28:37.162Z,21.67
2023-05-01T14:31:32.571Z,21.71
2023-05-01T14:37:01.993Z,21.36
2023-05-01T14:39:32.966Z,21.25
2023-05-01T14:42:06.413Z,21.15
2023-05-01T14:44:32.923Z,21.11
2023-05-01T14:47:00.353Z,20.90
2023-05-01T14:49:26.972Z,20.75
2023-05-01T14:51:54.126Z,20.57
2023-05-01T14:54:21.151Z,20.54
2023-05-01T14:56:48.944Z,20.44
2023-05-01T14:59:16.373Z,20.42
2023-05-01T15:01:43.982Z,20.30
2023-05-01T15:04:11.172Z,20.24
2023-05-01T15:06:37.907Z,20.22
2023-05-01T15:09:07.238Z,20.16
2023-05-01T15:11:33.758Z,20.15
2023-05-01T15:14:00.397Z,20.11
2023-05-01T15:16:27.819Z,19.88
2023-05-01T15:18:54.584Z,19.82
2023-05-01T15:21:21.098Z,19.60
2023-05-01T15:23:47.771Z,19.55
2023-05-01T15:26:14.325Z,19.55
2023-05-01T15:28:40.902Z,19.49
2023-05-01T15:31:07.532Z,19.36
2023-05-01T15:33:34.186Z,19.41
2023-05-01T15:36:00.998Z,19.26
2023-05-01T15:38:28.374Z,19.22
2023-05-01T15:40:55.068Z,19.04
2023-05-01T15:43:22.809Z,18.97
2023-05-01T15:45:50.269Z,18.86
2023-05-01T15:48:16.945Z,18.77
2023-05-01T15:50:43.435Z,18.59
2023-05-01T15:53:10.006Z,18.63
2023-05-01T15:55:36.803Z,18.53
2023-05-01T15:58:03.599Z,18.62
2023-05-01T16:00:30.934Z,18.66
2023-05-01T16:02:57.539Z,18.61
2023-05-01T16:05:26.904Z,18.53
2023-05-01T16:08:00.474Z,18.23
2023-05-01T16:10:27.678Z,18.26
2023-05-01T16:12:54.369Z,18.24
2023-05-01T16:15:22.752Z,18.15
2023-05-01T16:17:51.394Z,18.11
2023-05-01T16:20:18.101Z,18.04
2023-05-01T16:22:44.786Z,18.01
2023-05-01T16:25:12.163Z,17.93
2023-05-01T16:27:44.197Z,17.81
2023-05-01T16:30:14.275Z,17.60
2023-05-01T16:32:41.614Z,17.55
2023-05-01T16:35:11.989Z,17.45
2023-05-01T16:37:39.539Z,17.28
2023-05-01T16:40:07.487Z,17.13
2023-05-01T16:42:34.207Z,17.02
2023-05-01T16:45:13.480Z,16.80
2023-05-01T16:47:40.008Z,16.67
2023-05-01T16:50:08.599Z,16.52
2023-05-01T16:52:35.272Z,16.32
2023-05-01T16:55:01.960Z,16.20
2023-05-01T16:57:28.896Z,16.19
2023-05-01T16:59:55.359Z,16.05
2023-05-01T18:37:53.854Z,12.93
2023-05-01T18:44:13.247Z,12.94
2023-05-01T18:46:39.881Z,12.90
2023-05-01T19:10:32.411Z,12.68
2023-05-01T19:13:01.476Z,12.65
2023-05-01T19:22:42.478Z,12.55
2023-05-01T19:31:53.587Z,12.47
2023-05-01T19:38:11.262Z,12.42
2023-05-01T19:40:39.648Z,12.39
2023-05-01T19:53:45.463Z,12.10
2023-05-01T19:59:59.923Z,11.97
2023-05-01T20:02:26.792Z,11.94
2023-05-01T20:08:44.388Z,11.85
2023-05-01T20:11:11.357Z,11.81
2023-05-01T20:29:26.997Z,12.07
2023-05-01T20:36:25.337Z,12.09
2023-05-01T20:38:53.161Z,12.11
2023-05-01T20:45:21.226Z,12.12
2023-05-01T20:47:48.778Z,12.16
2023-05-01T20:50:52.456Z,12.21
2023-05-01T20:57:00.164Z,12.25
2023-05-01T20:59:26.701Z,12.24
2023-05-01T23:31:20.902Z,11.15
2023-05-01T23:33:47.427Z,11.10
2023-05-01T23:47:17.165Z,11.09
2023-05-01T23:54:16.244Z,11.05
2023-05-01T23:56:42.811Z,11.03
2023-05-01T23:59:09.304Z,11.05
